Orbital elements of FENGYUN 1C DEB
| Launched | 9 May 1999 |
| Flight ended | – |
| Launch site | Taiyuan Space Center, PRC |
| Owner | People's Republic of China |
| NORAD ID | 31691 |
| Date fetched |
Epoch osculation |
Inc. [°] |
Ecc. | RA asc node [hr] |
Arg Peri. [°] |
Mean anom [°] |
Mean motion [rev/day] |
Abs. mag |
| Date fetched |
Epoch osculation |
Inc. [°] |
Ecc. | RA asc node [hr] |
Arg Peri. [°] |
Mean anom [°] |
Mean motion [rev/day] |
Abs. mag |
| 2026 May 09 17:57 | 2026 May 03 23:51:33 | 98.8761 | 0.00609 | 14.5002 | 186.1765 | 173.8671 | 14.27639 | – |
| 2026 May 08 17:57 | 2026 May 03 23:51:33 | 98.8761 | 0.00609 | 14.5002 | 186.1765 | 173.8671 | 14.27639 | – |
| 2026 May 07 17:58 | 2026 May 03 23:51:33 | 98.8761 | 0.00609 | 14.5002 | 186.1765 | 173.8671 | 14.27639 | – |
| 2026 May 06 17:57 | 2026 May 03 23:51:33 | 98.8761 | 0.00609 | 14.5002 | 186.1765 | 173.8671 | 14.27639 | – |
| 2026 May 05 17:57 | 2026 May 03 23:51:33 | 98.8761 | 0.00609 | 14.5002 | 186.1765 | 173.8671 | 14.27639 | – |
| 2026 May 04 17:57 | 2026 Apr 29 23:58:50 | 98.8739 | 0.00606 | 14.2297 | 197.4210 | 173.8671 | 14.27639 | – |
| 2026 May 03 17:57 | 2026 Apr 29 23:58:50 | 98.8739 | 0.00606 | 14.2297 | 197.4210 | 173.8671 | 14.27639 | – |
| 2026 May 02 17:57 | 2026 Apr 29 23:58:50 | 98.8739 | 0.00606 | 14.2297 | 197.4210 | 173.8671 | 14.27639 | – |
| 2026 May 01 17:56 | 2026 Apr 29 23:58:50 | 98.8739 | 0.00606 | 14.2297 | 197.4210 | 173.8671 | 14.27639 | – |
| 2026 Apr 30 17:56 | 2026 Apr 29 23:58:50 | 98.8739 | 0.00606 | 14.2297 | 197.4210 | 173.8671 | 14.27639 | – |
| 2026 Apr 29 17:57 | 2026 Apr 22 23:45:59 | 98.8729 | 0.00598 | 13.7552 | 217.3451 | 173.8671 | 14.27639 | – |
| 2026 Apr 28 17:56 | 2026 Apr 22 23:45:59 | 98.8729 | 0.00598 | 13.7552 | 217.3451 | 173.8671 | 14.27639 | – |
| 2026 Apr 27 17:58 | 2026 Apr 22 23:45:59 | 98.8729 | 0.00598 | 13.7552 | 217.3451 | 173.8671 | 14.27639 | – |
| 2026 Apr 26 17:58 | 2026 Apr 22 23:45:59 | 98.8729 | 0.00598 | 13.7552 | 217.3451 | 173.8671 | 14.27639 | – |
| 2026 Apr 25 17:58 | 2026 Apr 22 23:45:59 | 98.8729 | 0.00598 | 13.7552 | 217.3451 | 173.8671 | 14.27639 | – |
| 2026 Apr 24 17:59 | 2026 Apr 22 23:45:59 | 98.8729 | 0.00598 | 13.7552 | 217.3451 | 173.8671 | 14.27639 | – |
| 2026 Apr 23 17:57 | 2026 Apr 18 23:52:52 | 98.8736 | 0.00594 | 13.4848 | 228.8619 | 173.8671 | 14.27639 | – |
| 2026 Apr 22 17:57 | 2026 Apr 18 23:52:52 | 98.8736 | 0.00594 | 13.4848 | 228.8619 | 173.8671 | 14.27639 | – |
| 2026 Apr 21 17:57 | 2026 Apr 18 23:52:52 | 98.8736 | 0.00594 | 13.4848 | 228.8619 | 173.8671 | 14.27639 | – |
| 2026 Apr 20 17:57 | 2026 Apr 18 23:52:52 | 98.8736 | 0.00594 | 13.4848 | 228.8619 | 173.8671 | 14.27639 | – |
| 2026 Apr 19 17:58 | 2026 Apr 18 23:52:52 | 98.8736 | 0.00594 | 13.4848 | 228.8619 | 173.8671 | 14.27639 | – |
| 2026 Apr 18 17:56 | 2026 Apr 10 12:19:51 | 98.8724 | 0.00583 | 12.9108 | 253.5263 | 173.8671 | 14.27639 | – |
| 2026 Apr 16 17:57 | 2026 Apr 10 12:19:51 | 98.8724 | 0.00583 | 12.9108 | 253.5263 | 173.8671 | 14.27639 | – |
| 2026 Apr 14 17:57 | 2026 Apr 10 12:19:51 | 98.8724 | 0.00583 | 12.9108 | 253.5263 | 173.8671 | 14.27639 | – |
| 2026 Apr 13 17:57 | 2026 Apr 10 12:19:51 | 98.8724 | 0.00583 | 12.9108 | 253.5263 | 173.8671 | 14.27639 | – |
| 2026 Apr 12 17:57 | 2026 Apr 07 23:46:09 | 98.8719 | 0.00580 | 12.7400 | 260.9371 | 173.8671 | 14.27639 | – |